Time;durP1;ratioP1;P1;durP2;ratioP2;P2;SDS_P1;SDS_P2;PMS_P1;PMS_P2;Temp;Humidity;BMP_temperature;BMP_pressure;BME280_temperature;BME280_humidity;BME280_pressure;Samples;Min_cycle;Max_cycle;Signal;HPM_P1;HPM_P2
2023/08/29 00:00:55;;;;;;;5.50;4.60;;;;;;;28.72;34.28;99762.50;104154;1291;73595;-85
2023/08/29 00:03:21;;;;;;;8.70;4.50;;;;;;;28.72;34.30;99763.52;104236;1288;69365;-85
2023/08/29 00:05:47;;;;;;;8.70;5.00;;;;;;;28.71;34.39;99762.88;104191;1285;69141;-85
2023/08/29 00:08:12;;;;;;;8.00;5.10;;;;;;;28.71;34.28;99764.98;104110;1286;69304;-84
2023/08/29 00:10:40;;;;;;;6.40;4.60;;;;;;;28.71;34.42;99770.55;104286;1283;69255;-90
2023/08/29 00:13:13;;;;;;;7.10;5.30;;;;;;;28.70;34.44;99773.06;104065;1286;70283;-85
2023/08/29 00:15:39;;;;;;;6.50;4.60;;;;;;;28.70;34.42;99773.33;104303;1288;69258;-85
2023/08/29 00:18:04;;;;;;;5.80;4.60;;;;;;;28.69;34.31;99770.72;104424;1283;69608;-85
2023/08/29 00:20:30;;;;;;;5.40;4.60;;;;;;;28.69;34.43;99765.59;104178;1291;69317;-85
2023/08/29 00:22:55;;;;;;;8.40;4.60;;;;;;;28.69;34.53;99766.27;104493;1286;69355;-85
2023/08/29 00:25:21;;;;;;;6.20;4.80;;;;;;;28.69;34.44;99765.38;104430;1285;69129;-85
2023/08/29 00:27:46;;;;;;;7.70;4.40;;;;;;;28.69;34.40;99765.95;104361;1283;69359;-85
2023/08/29 00:30:12;;;;;;;5.70;4.50;;;;;;;28.68;34.41;99761.81;104377;1287;69263;-84
2023/08/29 00:32:38;;;;;;;7.00;4.60;;;;;;;28.68;34.57;99766.48;104251;1286;67366;-85
2023/08/29 00:35:04;;;;;;;5.80;4.60;;;;;;;28.68;34.49;99760.47;104191;1285;69647;-85
2023/08/29 00:37:36;;;;;;;6.30;4.40;;;;;;;28.67;34.51;99765.27;104229;1283;69189;-90
2023/08/29 00:40:03;;;;;;;6.60;4.60;;;;;;;28.67;34.64;99767.95;104146;1283;69212;-85
2023/08/29 00:42:29;;;;;;;4.80;4.10;;;;;;;28.67;34.53;99770.21;104386;1285;69375;-85
2023/08/29 00:44:54;;;;;;;7.40;4.30;;;;;;;28.67;34.45;99774.46;104329;1286;69276;-85
2023/08/29 00:47:20;;;;;;;5.30;4.10;;;;;;;28.67;34.70;99778.06;104404;1285;69282;-85
2023/08/29 00:49:45;;;;;;;5.60;4.50;;;;;;;28.66;34.67;99779.14;104145;1289;68275;-85
2023/08/29 00:52:11;;;;;;;6.60;4.40;;;;;;;28.66;34.65;99781.95;104049;1288;74237;-85
2023/08/29 00:54:36;;;;;;;4.80;4.30;;;;;;;28.66;34.55;99785.81;104308;1286;69259;-85
2023/08/29 00:57:02;;;;;;;5.50;4.10;;;;;;;28.66;34.66;99788.20;104108;1286;69359;-84
2023/08/29 00:59:28;;;;;;;5.50;4.20;;;;;;;28.65;34.68;99790.30;104403;1288;69189;-85
2023/08/29 01:01:53;;;;;;;7.40;4.60;;;;;;;28.65;34.62;99788.02;104252;1283;69330;-85
2023/08/29 01:04:19;;;;;;;7.10;4.40;;;;;;;28.65;34.62;99790.88;104326;1285;69166;-85
2023/08/29 01:06:59;;;;;;;6.80;4.60;;;;;;;28.64;34.55;99785.69;104003;1289;69247;-85
2023/08/29 01:09:25;;;;;;;5.20;4.40;;;;;;;28.64;34.79;99781.41;104070;1294;69356;-85
2023/08/29 01:11:54;;;;;;;4.90;4.20;;;;;;;28.64;34.79;99779.97;104056;1288;69206;-85
2023/08/29 01:14:26;;;;;;;6.10;4.30;;;;;;;28.63;34.62;99776.67;104061;1288;73680;-85
2023/08/29 01:16:56;;;;;;;5.70;4.70;;;;;;;28.63;34.67;99779.90;103826;1293;69212;-84
2023/08/29 01:19:31;;;;;;;6.10;4.30;;;;;;;28.62;34.76;99779.14;103797;1288;69041;-91
2023/08/29 01:22:42;;;;;;;8.00;4.80;;;;;;;28.62;34.93;99774.14;104028;1293;69336;-85
2023/08/29 01:27:55;;;;;;;5.50;4.20;;;;;;;28.61;34.89;99770.61;104056;1288;74310;-85
2023/08/29 01:30:21;;;;;;;5.20;4.70;;;;;;;28.62;34.82;99769.96;103849;1286;69213;-85
2023/08/29 01:32:47;;;;;;;4.90;4.20;;;;;;;28.61;34.88;99765.04;104012;1288;69157;-85
2023/08/29 01:35:13;;;;;;;6.90;4.40;;;;;;;28.61;34.88;99767.47;103926;1285;69174;-85
2023/08/29 01:37:39;;;;;;;5.70;4.50;;;;;;;28.61;34.90;99770.88;104030;1292;69191;-85
2023/08/29 01:40:06;;;;;;;5.20;4.10;;;;;;;28.61;34.92;99764.61;103806;1292;69273;-85
2023/08/29 01:42:32;;;;;;;5.20;4.60;;;;;;;28.60;34.92;99763.67;104045;1291;69088;-85
2023/08/29 01:44:57;;;;;;;6.30;4.70;;;;;;;28.59;35.02;99764.93;103927;1288;69264;-85
2023/08/29 01:47:23;;;;;;;7.20;4.30;;;;;;;28.59;34.97;99771.05;104068;1290;69181;-85
2023/08/29 01:49:49;;;;;;;6.20;4.60;;;;;;;28.59;34.89;99772.11;104050;1289;69236;-85
2023/08/29 01:52:25;;;;;;;6.30;4.40;;;;;;;28.59;34.99;99772.30;104079;1288;67360;-90
2023/08/29 01:54:50;;;;;;;5.10;4.20;;;;;;;28.58;34.95;99774.20;103847;1288;67341;-84
2023/08/29 01:57:17;;;;;;;5.80;4.60;;;;;;;28.58;34.92;99773.94;103924;1292;69268;-84
2023/08/29 01:59:42;;;;;;;6.20;4.40;;;;;;;28.58;35.01;99774.16;103901;1289;70393;-84
2023/08/29 02:02:08;;;;;;;5.70;4.30;;;;;;;28.57;35.09;99774.44;104038;1291;69285;-85
2023/08/29 02:04:33;;;;;;;5.80;4.60;;;;;;;28.58;35.05;99774.77;104003;1289;69254;-85
2023/08/29 02:06:59;;;;;;;7.20;4.60;;;;;;;28.57;35.07;99770.58;104088;1291;69281;-84
2023/08/29 02:09:24;;;;;;;6.50;4.60;;;;;;;28.56;35.20;99768.80;104012;1289;69266;-85
2023/08/29 02:11:50;;;;;;;7.50;4.60;;;;;;;28.56;35.08;99767.08;104003;1288;69305;-85
2023/08/29 02:14:15;;;;;;;5.80;4.30;;;;;;;28.56;35.07;99767.46;104037;1286;67814;-85
2023/08/29 02:16:41;;;;;;;7.80;4.50;;;;;;;28.56;35.13;99766.59;103967;1291;69308;-85
2023/08/29 02:19:10;;;;;;;5.60;4.60;;;;;;;28.55;35.27;99763.82;103986;1291;69259;-90
2023/08/29 02:21:36;;;;;;;8.60;4.80;;;;;;;28.55;35.27;99765.51;104055;1291;74819;-85
2023/08/29 02:24:02;;;;;;;6.70;4.80;;;;;;;28.54;35.17;99761.95;104028;1292;69356;-85
2023/08/29 02:26:28;;;;;;;5.10;4.20;;;;;;;28.54;35.09;99761.04;103914;1294;69352;-85
2023/08/29 02:28:53;;;;;;;5.70;4.60;;;;;;;28.54;35.20;99763.16;104000;1287;68023;-85
2023/08/29 02:31:20;;;;;;;6.10;4.70;;;;;;;28.54;35.22;99761.00;104049;1291;69197;-85
2023/08/29 02:33:45;;;;;;;7.00;4.70;;;;;;;28.53;35.35;99764.80;103895;1291;69998;-85
2023/08/29 02:36:12;;;;;;;9.40;4.60;;;;;;;28.52;35.21;99763.48;103933;1292;69265;-85
2023/08/29 02:38:38;;;;;;;6.20;4.60;;;;;;;28.52;35.27;99763.59;103997;1290;69150;-84
2023/08/29 02:41:03;;;;;;;6.10;4.60;;;;;;;28.51;35.25;99762.55;104094;1291;69284;-85
2023/08/29 02:43:29;;;;;;;5.50;4.30;;;;;;;28.51;35.30;99762.92;103921;1289;69157;-85
2023/08/29 02:45:55;;;;;;;5.80;4.50;;;;;;;28.51;35.25;99763.11;103969;1288;69273;-85
2023/08/29 02:48:20;;;;;;;7.20;5.20;;;;;;;28.51;35.28;99764.64;104091;1288;69395;-84
2023/08/29 02:50:49;;;;;;;7.60;4.40;;;;;;;28.50;35.23;99766.42;104110;1288;69318;-85
2023/08/29 02:53:18;;;;;;;5.90;4.40;;;;;;;28.49;35.29;99767.48;103926;1288;73868;-85
2023/08/29 02:55:43;;;;;;;7.50;4.90;;;;;;;28.49;35.33;99768.22;104018;1289;67619;-85
2023/08/29 02:58:09;;;;;;;6.00;4.80;;;;;;;28.49;35.33;99767.07;104225;1291;69291;-88
2023/08/29 03:00:35;;;;;;;6.90;5.60;;;;;;;28.49;35.42;99764.80;104104;1289;70979;-86
2023/08/29 03:03:00;;;;;;;10.50;5.40;;;;;;;28.48;35.22;99761.15;104145;1285;69223;-85
2023/08/29 03:05:26;;;;;;;7.00;5.40;;;;;;;28.44;35.30;99754.67;104013;1293;69340;-85
2023/08/29 03:07:51;;;;;;;5.60;4.70;;;;;;;28.39;35.39;99751.16;104210;1288;69266;-85
2023/08/29 03:10:17;;;;;;;9.50;5.10;;;;;;;28.36;35.66;99748.78;104241;1287;70466;-86
2023/08/29 03:12:43;;;;;;;10.90;5.90;;;;;;;28.34;35.71;99744.48;104109;1288;69277;-85
2023/08/29 03:15:09;;;;;;;13.30;5.50;;;;;;;28.30;35.72;99742.58;104393;1291;69420;-89
2023/08/29 03:17:35;;;;;;;12.10;5.70;;;;;;;28.27;35.84;99745.15;104471;1300;69127;-89
2023/08/29 03:20:00;;;;;;;12.00;5.80;;;;;;;28.23;35.93;99741.70;104685;1289;69324;-89
2023/08/29 03:22:26;;;;;;;11.80;5.20;;;;;;;28.19;35.97;99739.52;104733;1291;67719;-89
2023/08/29 03:27:25;;;;;;;8.90;5.30;;;;;;;28.13;35.98;99736.58;104760;1285;69276;-89
2023/08/29 03:29:51;;;;;;;12.10;5.80;;;;;;;28.10;35.87;99736.56;104756;1289;69269;-89
2023/08/29 03:32:17;;;;;;;17.20;5.70;;;;;;;28.07;35.88;99738.89;104525;1291;69216;-88
2023/08/29 03:34:42;;;;;;;14.20;5.80;;;;;;;28.04;35.81;99736.23;104463;1285;69207;-89
2023/08/29 03:37:08;;;;;;;13.90;5.50;;;;;;;28.01;35.72;99733.03;104682;1288;69293;-89
2023/08/29 03:39:34;;;;;;;27.10;6.30;;;;;;;27.99;35.77;99730.55;104061;1292;308928;-89
2023/08/29 03:41:59;;;;;;;23.70;6.20;;;;;;;27.95;35.71;99730.83;104457;1288;69251;-89
2023/08/29 03:44:25;;;;;;;23.60;6.20;;;;;;;27.92;35.81;99731.69;104563;1291;69251;-89
2023/08/29 03:46:50;;;;;;;26.40;6.30;;;;;;;27.89;35.94;99735.55;104444;1292;69283;-89
2023/08/29 03:49:16;;;;;;;14.70;5.60;;;;;;;27.86;35.78;99737.13;104647;1285;69290;-89
2023/08/29 03:51:41;;;;;;;17.80;6.70;;;;;;;27.83;35.91;99732.59;104509;1287;69135;-89
2023/08/29 03:54:07;;;;;;;13.00;5.60;;;;;;;27.80;35.93;99728.36;104732;1287;69268;-89
2023/08/29 03:56:33;;;;;;;13.70;6.20;;;;;;;27.76;36.02;99725.09;104534;1286;69350;-89
2023/08/29 03:59:01;;;;;;;16.10;6.20;;;;;;;27.73;35.98;99722.54;104696;1289;68488;-89
2023/08/29 04:01:29;;;;;;;15.30;6.50;;;;;;;27.69;36.09;99726.89;104668;1286;69135;-89
2023/08/29 04:03:55;;;;;;;13.60;5.90;;;;;;;27.66;36.14;99732.29;105580;1291;69077;-93
2023/08/29 04:06:20;;;;;;;14.50;5.90;;;;;;;27.63;36.14;99734.58;104222;1292;67644;-89
2023/08/29 04:08:46;;;;;;;14.00;6.10;;;;;;;27.60;36.18;99731.38;104623;1288;69346;-89
2023/08/29 04:11:12;;;;;;;14.00;5.60;;;;;;;27.59;36.20;99732.29;104749;1288;69173;-89
2023/08/29 04:13:37;;;;;;;9.80;5.60;;;;;;;27.60;36.09;99730.77;104641;1285;69259;-89
2023/08/29 04:16:03;;;;;;;13.20;5.60;;;;;;;27.59;36.01;99727.86;104576;1288;69289;-89
2023/08/29 04:18:32;;;;;;;15.10;5.70;;;;;;;27.57;36.05;99730.10;104289;1289;69256;-89
2023/08/29 04:20:58;;;;;;;11.10;5.00;;;;;;;27.56;36.07;99727.95;104629;1289;69144;-89
2023/08/29 04:23:24;;;;;;;12.20;5.40;;;;;;;27.56;36.07;99733.98;104352;1288;69261;-89
2023/08/29 04:25:49;;;;;;;11.10;5.20;;;;;;;27.55;36.04;99728.95;104442;1288;69248;-89
2023/08/29 04:28:20;;;;;;;11.70;5.30;;;;;;;27.55;35.92;99726.64;104534;1289;69292;-89
2023/08/29 04:30:49;;;;;;;8.50;5.10;;;;;;;27.54;35.97;99723.77;104552;1288;73577;-92
2023/08/29 04:33:15;;;;;;;13.10;5.60;;;;;;;27.53;36.01;99721.14;104342;1287;69222;-89
2023/08/29 04:35:40;;;;;;;12.10;4.90;;;;;;;27.53;36.01;99715.73;104493;1289;69262;-88
2023/08/29 04:38:06;;;;;;;10.90;5.20;;;;;;;27.54;35.91;99718.34;104491;1288;69198;-89
2023/08/29 04:40:31;;;;;;;12.00;5.60;;;;;;;27.54;36.00;99720.30;104677;1288;67982;-89
2023/08/29 04:42:57;;;;;;;10.10;5.50;;;;;;;27.55;36.07;99722.39;104934;1284;69174;-89
2023/08/29 04:45:23;;;;;;;12.20;5.40;;;;;;;27.56;36.03;99722.20;104626;1285;69368;-89
2023/08/29 04:47:49;;;;;;;12.40;5.20;;;;;;;27.58;36.06;99724.67;105595;1282;69259;-89
2023/08/29 04:50:14;;;;;;;9.60;5.30;;;;;;;27.61;36.10;99724.50;104659;1286;69193;-89
2023/08/29 04:52:40;;;;;;;8.70;5.00;;;;;;;27.64;36.10;99721.08;104589;1289;70382;-89
2023/08/29 04:55:06;;;;;;;10.70;5.10;;;;;;;27.66;36.04;99720.54;104542;1286;69273;-89
2023/08/29 05:00:19;;;;;;;12.00;5.50;;;;;;;27.69;35.99;99723.05;104552;1289;557546;-89
2023/08/29 05:02:45;;;;;;;16.60;5.40;;;;;;;27.70;36.01;99728.24;104828;1289;69083;-88
2023/08/29 05:05:11;;;;;;;12.20;5.40;;;;;;;27.69;35.96;99728.02;104907;1288;69204;-88
2023/08/29 05:07:36;;;;;;;13.80;5.70;;;;;;;27.68;36.04;99723.86;104707;1287;69239;-88
2023/08/29 05:10:02;;;;;;;10.90;5.20;;;;;;;27.68;36.10;99724.02;104878;1286;69256;-88
2023/08/29 05:15:03;;;;;;;13.50;5.90;;;;;;;27.68;35.92;99721.79;104692;1285;69030;-88
2023/08/29 05:17:29;;;;;;;12.50;5.50;;;;;;;27.68;35.97;99726.05;104592;1288;69236;-88
2023/08/29 05:19:54;;;;;;;13.60;5.90;;;;;;;27.67;36.03;99724.32;104767;1286;69145;-88
2023/08/29 05:22:20;;;;;;;12.50;5.50;;;;;;;27.68;35.94;99720.94;105164;1291;66930;-87
2023/08/29 05:24:45;;;;;;;14.60;5.80;;;;;;;27.67;36.04;99718.91;106131;1282;69256;-88
2023/08/29 05:27:11;;;;;;;11.80;5.20;;;;;;;27.67;35.97;99716.19;105794;1291;69131;-87
2023/08/29 05:29:37;;;;;;;12.80;5.70;;;;;;;27.67;35.92;99717.89;106092;1286;68260;-88
2023/08/29 05:32:03;;;;;;;11.30;6.10;;;;;;;27.67;35.92;99720.92;106050;1286;69292;-88
2023/08/29 05:34:28;;;;;;;13.30;5.70;;;;;;;27.67;35.98;99722.92;106166;1282;69279;-87
2023/08/29 05:36:55;;;;;;;13.30;6.00;;;;;;;27.69;36.01;99719.91;106799;1283;66561;-89
2023/08/29 05:41:52;;;;;;;10.40;5.70;;;;;;;27.70;35.97;99720.46;106890;1286;66724;-89
2023/08/29 05:44:18;;;;;;;12.60;6.00;;;;;;;27.71;35.98;99720.65;106662;1286;67932;-89
2023/08/29 05:46:43;;;;;;;12.80;6.60;;;;;;;27.72;35.82;99717.50;106718;1285;66918;-89
2023/08/29 05:49:09;;;;;;;25.70;18.30;;;;;;;27.73;35.93;99715.74;106807;1290;66745;-89
2023/08/29 05:51:34;;;;;;;23.80;13.20;;;;;;;27.75;35.86;99715.75;105642;1287;67456;-89
2023/08/29 05:54:00;;;;;;;14.20;8.00;;;;;;;27.78;35.96;99715.95;104388;1292;69252;-88
2023/08/29 05:56:25;;;;;;;13.90;8.10;;;;;;;27.78;35.87;99716.15;104428;1286;74608;-88
2023/08/29 05:58:51;;;;;;;18.80;7.60;;;;;;;27.79;35.76;99718.52;104574;1291;69284;-88
2023/08/29 06:01:16;;;;;;;14.70;7.30;;;;;;;27.80;35.90;99718.85;104325;1294;69285;-88
2023/08/29 06:03:42;;;;;;;23.20;7.40;;;;;;;27.81;35.92;99716.11;104662;1286;69256;-89
2023/08/29 06:06:08;;;;;;;14.30;6.80;;;;;;;27.82;35.83;99710.20;104513;1291;69212;-88
2023/08/29 06:08:33;;;;;;;15.90;6.40;;;;;;;27.82;36.00;99711.37;104548;1286;69081;-88
2023/08/29 06:11:03;;;;;;;13.50;6.10;;;;;;;27.83;35.94;99713.30;104441;1289;69183;-88
2023/08/29 06:13:29;;;;;;;13.20;6.50;;;;;;;27.83;35.83;99713.30;104458;1286;69490;-88
2023/08/29 06:15:54;;;;;;;15.10;6.30;;;;;;;27.84;35.83;99711.10;104455;1289;69256;-88
2023/08/29 06:18:28;;;;;;;32.70;17.70;;;;;;;27.85;35.87;99707.76;104268;1287;70288;-92
2023/08/29 06:20:53;;;;;;;30.30;16.70;;;;;;;27.86;35.80;99711.12;104448;1286;69199;-88
2023/08/29 06:23:19;;;;;;;21.20;11.40;;;;;;;27.86;35.79;99710.16;104623;1292;69284;-88
2023/08/29 06:25:44;;;;;;;17.20;9.20;;;;;;;27.87;35.88;99713.65;104622;1291;69403;-88
2023/08/29 06:28:10;;;;;;;15.50;9.20;;;;;;;27.88;35.80;99712.02;104239;1286;69260;-88
2023/08/29 06:30:36;;;;;;;20.30;6.70;;;;;;;27.89;35.87;99709.13;104622;1286;69121;-88
2023/08/29 06:33:01;;;;;;;14.50;6.60;;;;;;;27.90;35.81;99710.60;104611;1291;69244;-90
2023/08/29 06:35:27;;;;;;;19.80;6.20;;;;;;;27.91;35.81;99709.27;104561;1286;69215;-89
2023/08/29 06:37:55;;;;;;;14.60;5.50;;;;;;;27.92;35.78;99707.39;104312;1291;69180;-89
2023/08/29 06:40:21;;;;;;;22.90;6.40;;;;;;;27.94;35.88;99707.38;104514;1291;69237;-89
2023/08/29 06:42:50;;;;;;;23.70;6.00;;;;;;;27.96;35.93;99707.79;104323;1292;69246;-88
2023/08/29 06:45:15;;;;;;;18.10;6.00;;;;;;;27.97;35.92;99712.88;104240;1289;69123;-88
2023/08/29 06:47:41;;;;;;;14.20;6.00;;;;;;;27.98;35.93;99712.15;104292;1292;69329;-87
2023/08/29 06:50:08;;;;;;;11.40;5.80;;;;;;;28.00;35.91;99715.71;104617;1286;69259;-87
2023/08/29 06:52:34;;;;;;;19.10;6.10;;;;;;;28.01;36.02;99711.81;104705;1287;69280;-88
2023/08/29 06:55:00;;;;;;;13.90;6.10;;;;;;;28.02;36.08;99712.52;104794;1285;69186;-87
2023/08/29 06:57:26;;;;;;;16.30;6.10;;;;;;;28.04;35.85;99712.23;104530;1285;69311;-88
2023/08/29 06:59:52;;;;;;;18.80;6.30;;;;;;;28.06;35.90;99714.64;104464;1290;69327;-88
2023/08/29 07:02:18;;;;;;;14.60;5.70;;;;;;;28.08;35.88;99716.22;104406;1286;74491;-87
2023/08/29 07:04:44;;;;;;;16.70;5.60;;;;;;;28.10;35.82;99713.94;104373;1286;69237;-87
2023/08/29 07:07:09;;;;;;;15.70;6.00;;;;;;;28.12;35.81;99715.19;104570;1289;69262;-88
2023/08/29 07:09:35;;;;;;;13.80;6.00;;;;;;;28.14;35.79;99709.34;104624;1289;70813;-87
2023/08/29 07:14:40;;;;;;;12.30;5.90;;;;;;;28.18;35.82;99705.02;104322;1287;69243;-88
2023/08/29 07:17:06;;;;;;;22.20;6.70;;;;;;;28.21;35.80;99709.81;104265;1287;69289;-88
2023/08/29 07:19:32;;;;;;;11.70;5.60;;;;;;;28.22;35.83;99709.48;104323;1288;69354;-88
2023/08/29 07:21:59;;;;;;;13.00;5.80;;;;;;;28.25;35.68;99712.28;104438;1288;69252;-89
2023/08/29 07:24:24;;;;;;;11.90;6.00;;;;;;;28.28;35.79;99715.70;104329;1291;70252;-89
2023/08/29 07:26:50;;;;;;;11.60;5.90;;;;;;;28.31;35.73;99716.80;104244;1290;69233;-88
2023/08/29 07:29:15;;;;;;;11.80;5.70;;;;;;;28.34;35.70;99715.35;104311;1288;69145;-88
2023/08/29 07:31:41;;;;;;;11.10;5.60;;;;;;;28.38;35.63;99708.48;104438;1287;67314;-88
2023/08/29 07:34:07;;;;;;;13.60;5.60;;;;;;;28.40;35.58;99703.66;104516;1290;69730;-88
2023/08/29 07:36:32;;;;;;;14.60;5.60;;;;;;;28.42;35.57;99697.31;104342;1288;69564;-89
2023/08/29 07:41:38;;;;;;;18.50;6.40;;;;;;;28.48;35.56;99708.53;104488;1288;69133;-88
2023/08/29 07:44:03;;;;;;;16.00;6.40;;;;;;;28.52;35.55;99704.55;104505;1288;67944;-88
2023/08/29 07:46:29;;;;;;;15.70;6.10;;;;;;;28.54;35.57;99700.45;104675;1285;69196;-88
2023/08/29 07:48:54;;;;;;;15.10;6.10;;;;;;;28.57;35.38;99701.69;104575;1285;69202;-88
2023/08/29 07:51:20;;;;;;;10.00;6.60;;;;;;;28.61;35.48;99699.71;104543;1288;69253;-88
2023/08/29 07:53:45;;;;;;;13.10;6.30;;;;;;;28.63;35.50;99701.17;104667;1285;73633;-88
2023/08/29 07:56:11;;;;;;;11.60;5.90;;;;;;;28.66;35.40;99697.84;104682;1285;69244;-88
2023/08/29 07:58:36;;;;;;;13.70;7.30;;;;;;;28.68;35.50;99699.72;104600;1285;69364;-88
2023/08/29 08:01:02;;;;;;;15.20;7.30;;;;;;;28.71;35.43;99697.94;104656;1285;69263;-88
2023/08/29 08:03:29;;;;;;;14.30;8.00;;;;;;;28.72;35.51;99698.61;104625;1288;69258;-88
2023/08/29 08:06:03;;;;;;;11.30;6.80;;;;;;;28.74;35.56;99689.88;104540;1285;69353;-93
2023/08/29 08:08:29;;;;;;;14.90;6.90;;;;;;;28.78;35.53;99684.30;104343;1288;69135;-88
2023/08/29 08:10:54;;;;;;;12.20;7.10;;;;;;;28.81;35.43;99680.27;104531;1285;69366;-88
2023/08/29 08:13:20;;;;;;;14.20;6.90;;;;;;;28.83;35.36;99679.34;104663;1285;69254;-89
2023/08/29 08:15:46;;;;;;;12.70;6.60;;;;;;;28.87;35.42;99674.77;104588;1286;69331;-88
2023/08/29 08:18:11;;;;;;;13.10;6.20;;;;;;;28.90;35.41;99673.30;104644;1285;69269;-89
2023/08/29 08:20:38;;;;;;;11.50;6.10;;;;;;;28.93;35.44;99674.55;104526;1290;69218;-88
2023/08/29 08:23:04;;;;;;;12.10;6.30;;;;;;;28.96;35.35;99670.69;104608;1285;69302;-88
2023/08/29 08:26:01;;;;;;;15.60;6.00;;;;;;;29.00;35.45;99667.14;104549;1285;74227;-89
2023/08/29 08:28:27;;;;;;;10.30;5.80;;;;;;;29.04;35.25;99665.21;104361;1288;69337;-88
2023/08/29 08:30:53;;;;;;;11.40;5.70;;;;;;;29.08;35.14;99662.52;104756;1285;69189;-88
2023/08/29 08:33:18;;;;;;;15.70;5.20;;;;;;;29.11;35.18;99663.17;104568;1285;69225;-89
2023/08/29 08:38:24;;;;;;;;;;;;;;;29.17;35.15;99654.27;104480;1285;73629;-88
2023/08/29 08:40:54;;;;;;;18.80;5.60;;;;;;;29.22;34.85;99657.34;104286;1288;69270;-88
2023/08/29 08:43:20;;;;;;;14.40;5.20;;;;;;;29.27;34.81;99647.89;104595;1286;69650;-88
2023/08/29 08:45:45;;;;;;;13.40;5.10;;;;;;;29.30;34.70;99644.44;104263;1290;69230;-88
2023/08/29 08:48:11;;;;;;;11.60;5.20;;;;;;;29.34;34.65;99643.56;104513;1285;69253;-88
2023/08/29 08:50:36;;;;;;;7.20;5.20;;;;;;;29.37;34.70;99643.75;104277;1288;69347;-88
2023/08/29 08:53:02;;;;;;;10.20;5.50;;;;;;;29.42;34.62;99647.48;104603;1288;69270;-88
2023/08/29 08:55:28;;;;;;;11.60;5.50;;;;;;;29.44;34.50;99642.70;104421;1289;69261;-88
2023/08/29 08:57:53;;;;;;;11.10;5.60;;;;;;;29.47;34.57;99642.51;104698;1288;69186;-88
2023/08/29 09:00:20;;;;;;;9.60;5.60;;;;;;;29.49;34.44;99641.50;104767;1290;69168;-88
2023/08/29 09:02:54;;;;;;;15.40;5.80;;;;;;;29.51;34.34;99638.92;104617;1285;69196;-92
2023/08/29 09:05:20;;;;;;;17.10;6.10;;;;;;;29.52;34.29;99640.34;104492;1286;69263;-88
2023/08/29 09:07:46;;;;;;;11.40;5.30;;;;;;;29.54;34.40;99635.64;104687;1285;69411;-88
2023/08/29 09:10:15;;;;;;;9.70;5.80;;;;;;;29.57;34.11;99631.71;104705;1285;69299;-88
2023/08/29 09:12:55;;;;;;;14.60;6.20;;;;;;;29.60;34.55;99630.51;104660;1287;74784;-88
2023/08/29 09:15:21;;;;;;;15.30;6.00;;;;;;;29.61;34.51;99623.18;104651;1285;69301;-88
2023/08/29 09:17:48;;;;;;;15.50;7.00;;;;;;;29.62;34.35;99619.27;104643;1287;69282;-93
2023/08/29 09:20:14;;;;;;;11.90;6.30;;;;;;;29.63;34.26;99615.34;104555;1288;69259;-88
2023/08/29 09:22:42;;;;;;;12.70;5.80;;;;;;;29.63;34.08;99612.11;105022;1285;69297;-88
2023/08/29 09:25:08;;;;;;;8.80;6.00;;;;;;;29.64;34.17;99607.73;104853;1285;73759;-88
2023/08/29 09:27:41;;;;;;;11.20;5.80;;;;;;;29.65;34.04;99605.96;104470;1285;69109;-88
2023/08/29 09:30:18;;;;;;;12.10;5.60;;;;;;;29.68;34.17;99605.58;104715;1285;69081;-89
2023/08/29 09:32:51;;;;;;;13.90;6.40;;;;;;;29.70;34.25;99606.58;104574;1285;70516;-89
2023/08/29 09:35:19;;;;;;;17.50;7.00;;;;;;;29.72;34.26;99609.20;104446;1285;69132;-89
2023/08/29 09:37:53;;;;;;;8.70;5.70;;;;;;;29.73;34.22;99603.74;104669;1285;73765;-89
2023/08/29 09:40:19;;;;;;;77.20;8.70;;;;;;;29.75;34.32;99606.42;104639;1288;69228;-89
2023/08/29 09:42:55;;;;;;;77.20;10.40;;;;;;;29.78;34.03;99604.84;104645;1285;68601;-89
2023/08/29 09:45:21;;;;;;;45.80;8.70;;;;;;;29.81;34.05;99600.42;104498;1285;69046;-89
2023/08/29 09:47:46;;;;;;;57.60;12.40;;;;;;;29.82;34.02;99601.40;104713;1285;69100;-90
2023/08/29 09:50:14;;;;;;;47.10;10.40;;;;;;;29.81;34.00;99600.65;104523;1285;69285;-89
2023/08/29 09:52:43;;;;;;;44.20;10.60;;;;;;;29.81;34.18;99597.45;104794;1285;69250;-89
2023/08/29 09:55:09;;;;;;;26.80;7.90;;;;;;;29.82;34.22;99598.13;104447;1285;69183;-89
2023/08/29 09:57:35;;;;;;;28.40;7.80;;;;;;;29.83;34.17;99600.33;104713;1289;69135;-89
2023/08/29 10:00:02;;;;;;;26.90;7.30;;;;;;;29.86;34.02;99601.67;104872;1288;69224;-89
2023/08/29 10:05:38;;;;;;;14.50;7.10;;;;;;;29.95;34.01;99593.64;104448;1287;69036;-92
2023/08/29 10:08:11;;;;;;;16.70;7.20;;;;;;;29.97;34.04;99587.98;104249;1289;69223;-88
2023/08/29 10:10:40;;;;;;;16.60;7.50;;;;;;;29.97;33.87;99584.00;104426;1288;69072;-88
2023/08/29 10:13:06;;;;;;;34.20;7.90;;;;;;;29.98;33.78;99583.64;104518;1288;69047;-88
2023/08/29 10:15:32;;;;;;;22.50;6.80;;;;;;;30.01;33.70;99588.55;104308;1288;68360;-88
2023/08/29 10:17:58;;;;;;;22.40;6.40;;;;;;;30.05;33.80;99582.04;104550;1289;69352;-89
2023/08/29 10:20:34;;;;;;;15.90;6.10;;;;;;;30.09;33.60;99581.90;105020;1287;68988;-94
2023/08/29 10:23:00;;;;;;;13.60;6.40;;;;;;;30.11;33.33;99579.89;104333;1288;69247;-89
2023/08/29 10:25:28;;;;;;;16.80;6.30;;;;;;;30.11;33.62;99581.73;104918;1287;69226;-87
2023/08/29 10:27:53;;;;;;;15.70;6.40;;;;;;;30.11;33.38;99577.48;104666;1291;73579;-88
2023/08/29 10:30:19;;;;;;;14.30;6.20;;;;;;;30.14;33.26;99567.98;104387;1288;69735;-88
2023/08/29 10:32:46;;;;;;;18.20;6.80;;;;;;;30.14;33.30;99568.26;104354;1288;69283;-88
2023/08/29 10:37:58;;;;;;;19.00;6.60;;;;;;;30.17;33.16;99566.04;104049;1291;69101;-85
2023/08/29 10:40:24;;;;;;;23.70;6.40;;;;;;;30.19;33.00;99573.23;103887;1295;73607;-85
2023/08/29 10:42:51;;;;;;;17.60;7.00;;;;;;;30.22;32.86;99569.55;103949;1289;69375;-84
2023/08/29 10:45:18;;;;;;;21.40;6.10;;;;;;;30.24;33.03;99563.84;104407;1294;68113;-84
2023/08/29 10:47:47;;;;;;;16.20;5.90;;;;;;;30.28;32.50;99568.29;103892;1293;69173;-84
2023/08/29 10:52:54;;;;;;;13.50;5.50;;;;;;;30.33;32.38;99561.77;104259;1291;72833;-85
2023/08/29 10:55:24;;;;;;;15.40;6.10;;;;;;;30.33;32.70;99558.50;104113;1285;69150;-84
2023/08/29 10:57:51;;;;;;;19.70;6.70;;;;;;;30.31;32.51;99561.05;104342;1285;69475;-84
2023/08/29 11:00:17;;;;;;;17.90;6.50;;;;;;;30.28;32.55;99561.89;104017;1285;69285;-84
2023/08/29 11:02:43;;;;;;;9.30;6.10;;;;;;;30.28;32.46;99555.91;104389;1285;67500;-84
2023/08/29 11:07:43;;;;;;;15.20;6.20;;;;;;;30.30;32.59;99544.60;104530;1285;69080;-85
2023/08/29 11:10:13;;;;;;;11.30;6.10;;;;;;;30.30;32.33;99544.59;104196;1288;69305;-85
2023/08/29 11:13:01;;;;;;;13.00;6.30;;;;;;;30.30;32.49;99541.91;104250;1291;69203;-84
2023/08/29 11:15:48;;;;;;;13.70;6.00;;;;;;;30.32;32.44;99542.46;104394;1288;67591;-85
2023/08/29 11:18:20;;;;;;;17.50;6.50;;;;;;;30.33;32.40;99538.70;104429;1288;73627;-85
2023/08/29 11:20:46;;;;;;;16.20;6.30;;;;;;;30.33;32.36;99540.70;104959;1289;69170;-86
2023/08/29 11:23:20;;;;;;;14.60;6.20;;;;;;;30.38;32.15;99531.63;104901;1287;69353;-90
2023/08/29 11:25:50;;;;;;;11.50;6.00;;;;;;;30.40;31.77;99531.80;104663;1288;69344;-85
2023/08/29 11:28:16;;;;;;;16.80;6.30;;;;;;;30.39;32.17;99530.45;104330;1288;69083;-85
2023/08/29 11:30:42;;;;;;;11.00;6.10;;;;;;;30.36;32.15;99530.07;104343;1288;69267;-85
2023/08/29 11:33:07;;;;;;;16.70;6.60;;;;;;;30.34;32.02;99536.90;105181;1287;69187;-85
2023/08/29 11:35:36;;;;;;;13.40;6.30;;;;;;;30.34;32.15;99532.17;104245;1288;69292;-85
2023/08/29 11:38:02;;;;;;;14.10;6.50;;;;;;;30.35;31.97;99526.42;104474;1287;69238;-85
2023/08/29 11:40:27;;;;;;;13.90;6.20;;;;;;;30.36;32.09;99521.95;104499;1289;69245;-85
2023/08/29 11:42:52;;;;;;;12.50;6.40;;;;;;;30.36;32.14;99516.90;104223;1288;69245;-85
2023/08/29 11:45:18;;;;;;;8.20;5.80;;;;;;;30.35;32.16;99514.67;104051;1290;69142;-85
2023/08/29 11:47:43;;;;;;;10.40;6.10;;;;;;;30.34;31.96;99506.66;104118;1286;69324;-85
2023/08/29 11:50:17;;;;;;;15.30;7.20;;;;;;;30.34;32.26;99505.63;104272;1289;69189;-90